sensor_id;sensor_type;location;lat;lon;timestamp;P1;durP1;ratioP1;P2;durP2;ratioP2
51527;SDS011;37612;51.768;21.590;2023-12-22T00:01:54;2.90;;;1.00;;
51527;SDS011;37612;51.768;21.590;2023-12-22T00:05:56;5.90;;;1.50;;
51527;SDS011;37612;51.768;21.590;2023-12-22T00:09:58;5.70;;;1.60;;
51527;SDS011;37612;51.768;21.590;2023-12-22T00:14:02;4.30;;;1.40;;
51527;SDS011;37612;51.768;21.590;2023-12-22T00:18:05;4.00;;;1.20;;
51527;SDS011;37612;51.768;21.590;2023-12-22T00:22:20;5.80;;;1.50;;
51527;SDS011;37612;51.768;21.590;2023-12-22T00:26:25;4.90;;;1.30;;
51527;SDS011;37612;51.768;21.590;2023-12-22T00:30:27;6.80;;;1.40;;
51527;SDS011;37612;51.768;21.590;2023-12-22T00:34:29;5.50;;;1.30;;
51527;SDS011;37612;51.768;21.590;2023-12-22T00:38:34;4.70;;;1.10;;
51527;SDS011;37612;51.768;21.590;2023-12-22T00:47:20;4.30;;;1.10;;
51527;SDS011;37612;51.768;21.590;2023-12-22T00:51:23;4.30;;;1.50;;
51527;SDS011;37612;51.768;21.590;2023-12-22T00:55:25;5.80;;;1.10;;
51527;SDS011;37612;51.768;21.590;2023-12-22T00:59:27;12.10;;;1.80;;
51527;SDS011;37612;51.768;21.590;2023-12-22T01:03:29;4.60;;;1.50;;
51527;SDS011;37612;51.768;21.590;2023-12-22T01:07:31;3.40;;;1.30;;
51527;SDS011;37612;51.768;21.590;2023-12-22T01:11:33;5.10;;;1.50;;
51527;SDS011;37612;51.768;21.590;2023-12-22T01:15:45;3.90;;;1.20;;
51527;SDS011;37612;51.768;21.590;2023-12-22T01:19:47;6.30;;;1.20;;
51527;SDS011;37612;51.768;21.590;2023-12-22T01:27:51;7.40;;;1.50;;
51527;SDS011;37612;51.768;21.590;2023-12-22T01:31:53;5.50;;;1.40;;
51527;SDS011;37612;51.768;21.590;2023-12-22T01:36:28;7.00;;;1.60;;
51527;SDS011;37612;51.768;21.590;2023-12-22T01:40:36;3.80;;;1.30;;
51527;SDS011;37612;51.768;21.590;2023-12-22T01:45:07;6.40;;;1.60;;
51527;SDS011;37612;51.768;21.590;2023-12-22T01:49:11;8.10;;;1.50;;
51527;SDS011;37612;51.768;21.590;2023-12-22T01:53:47;6.70;;;1.70;;
51527;SDS011;37612;51.768;21.590;2023-12-22T02:02:18;6.60;;;1.80;;
51527;SDS011;37612;51.768;21.590;2023-12-22T02:07:18;8.00;;;1.70;;
51527;SDS011;37612;51.768;21.590;2023-12-22T02:11:40;8.10;;;1.80;;
51527;SDS011;37612;51.768;21.590;2023-12-22T02:16:03;9.40;;;2.30;;
51527;SDS011;37612;51.768;21.590;2023-12-22T02:21:28;6.80;;;1.40;;
51527;SDS011;37612;51.768;21.590;2023-12-22T02:25:34;10.10;;;1.80;;
51527;SDS011;37612;51.768;21.590;2023-12-22T02:35:48;10.30;;;1.90;;
51527;SDS011;37612;51.768;21.590;2023-12-22T02:40:23;11.90;;;2.10;;
51527;SDS011;37612;51.768;21.590;2023-12-22T02:50:04;12.30;;;2.20;;
51527;SDS011;37612;51.768;21.590;2023-12-22T02:54:41;7.90;;;2.10;;
51527;SDS011;37612;51.768;21.590;2023-12-22T02:59:15;11.70;;;2.20;;
51527;SDS011;37612;51.768;21.590;2023-12-22T03:03:18;8.10;;;2.40;;
51527;SDS011;37612;51.768;21.590;2023-12-22T03:07:20;9.80;;;2.00;;
51527;SDS011;37612;51.768;21.590;2023-12-22T03:11:31;9.30;;;1.90;;
51527;SDS011;37612;51.768;21.590;2023-12-22T03:16:31;7.10;;;2.20;;
51527;SDS011;37612;51.768;21.590;2023-12-22T03:21:19;4.60;;;1.60;;
51527;SDS011;37612;51.768;21.590;2023-12-22T03:25:22;12.30;;;2.10;;
51527;SDS011;37612;51.768;21.590;2023-12-22T03:29:26;4.70;;;1.90;;
51527;SDS011;37612;51.768;21.590;2023-12-22T03:38:56;9.00;;;2.30;;
51527;SDS011;37612;51.768;21.590;2023-12-22T03:43:04;11.60;;;2.20;;
51527;SDS011;37612;51.768;21.590;2023-12-22T03:47:30;9.80;;;1.90;;
51527;SDS011;37612;51.768;21.590;2023-12-22T03:51:39;10.40;;;1.90;;
51527;SDS011;37612;51.768;21.590;2023-12-22T03:56:12;7.20;;;1.90;;
51527;SDS011;37612;51.768;21.590;2023-12-22T04:00:16;9.20;;;2.00;;
51527;SDS011;37612;51.768;21.590;2023-12-22T04:04:20;8.70;;;1.90;;
51527;SDS011;37612;51.768;21.590;2023-12-22T04:08:25;7.80;;;1.90;;
51527;SDS011;37612;51.768;21.590;2023-12-22T04:12:47;7.00;;;1.30;;
51527;SDS011;37612;51.768;21.590;2023-12-22T04:16:59;8.00;;;1.80;;
51527;SDS011;37612;51.768;21.590;2023-12-22T04:25:44;10.50;;;2.10;;
51527;SDS011;37612;51.768;21.590;2023-12-22T04:29:46;4.80;;;1.50;;
51527;SDS011;37612;51.768;21.590;2023-12-22T04:34:32;10.90;;;2.00;;
51527;SDS011;37612;51.768;21.590;2023-12-22T04:38:56;10.10;;;1.90;;
51527;SDS011;37612;51.768;21.590;2023-12-22T04:43:18;3.40;;;1.40;;
51527;SDS011;37612;51.768;21.590;2023-12-22T04:47:20;10.50;;;2.10;;
51527;SDS011;37612;51.768;21.590;2023-12-22T04:51:23;11.40;;;2.20;;
51527;SDS011;37612;51.768;21.590;2023-12-22T04:55:25;9.70;;;1.60;;
51527;SDS011;37612;51.768;21.590;2023-12-22T04:59:51;6.40;;;2.00;;
51527;SDS011;37612;51.768;21.590;2023-12-22T05:03:53;8.30;;;2.10;;
51527;SDS011;37612;51.768;21.590;2023-12-22T05:07:55;5.90;;;1.80;;
51527;SDS011;37612;51.768;21.590;2023-12-22T05:12:13;10.30;;;2.40;;
51527;SDS011;37612;51.768;21.590;2023-12-22T05:17:15;4.60;;;1.60;;
51527;SDS011;37612;51.768;21.590;2023-12-22T05:22:00;8.60;;;1.70;;
51527;SDS011;37612;51.768;21.590;2023-12-22T05:26:02;11.90;;;2.70;;
51527;SDS011;37612;51.768;21.590;2023-12-22T05:30:05;10.40;;;2.20;;
51527;SDS011;37612;51.768;21.590;2023-12-22T05:34:47;10.50;;;2.00;;
51527;SDS011;37612;51.768;21.590;2023-12-22T05:38:58;9.20;;;2.60;;
51527;SDS011;37612;51.768;21.590;2023-12-22T05:44:00;11.50;;;2.40;;
51527;SDS011;37612;51.768;21.590;2023-12-22T05:48:11;7.40;;;1.40;;
51527;SDS011;37612;51.768;21.590;2023-12-22T05:52:13;9.10;;;2.10;;
51527;SDS011;37612;51.768;21.590;2023-12-22T05:56:35;7.10;;;2.10;;
51527;SDS011;37612;51.768;21.590;2023-12-22T06:00:36;11.40;;;2.10;;
51527;SDS011;37612;51.768;21.590;2023-12-22T06:04:39;14.60;;;2.90;;
51527;SDS011;37612;51.768;21.590;2023-12-22T06:08:42;13.70;;;2.40;;
51527;SDS011;37612;51.768;21.590;2023-12-22T06:12:43;11.20;;;5.30;;
51527;SDS011;37612;51.768;21.590;2023-12-22T06:17:04;10.80;;;4.30;;
51527;SDS011;37612;51.768;21.590;2023-12-22T06:21:06;13.30;;;3.00;;
51527;SDS011;37612;51.768;21.590;2023-12-22T06:25:15;12.50;;;2.90;;
51527;SDS011;37612;51.768;21.590;2023-12-22T06:29:17;8.80;;;2.30;;
51527;SDS011;37612;51.768;21.590;2023-12-22T06:33:19;10.50;;;3.50;;
51527;SDS011;37612;51.768;21.590;2023-12-22T06:37:21;12.80;;;5.50;;
51527;SDS011;37612;51.768;21.590;2023-12-22T06:41:24;12.30;;;2.40;;
51527;SDS011;37612;51.768;21.590;2023-12-22T06:45:27;7.90;;;2.20;;
51527;SDS011;37612;51.768;21.590;2023-12-22T06:49:29;22.20;;;10.80;;
51527;SDS011;37612;51.768;21.590;2023-12-22T06:53:31;24.70;;;14.80;;
51527;SDS011;37612;51.768;21.590;2023-12-22T06:57:33;22.50;;;14.70;;
51527;SDS011;37612;51.768;21.590;2023-12-22T07:01:35;10.70;;;4.20;;
51527;SDS011;37612;51.768;21.590;2023-12-22T07:05:37;12.60;;;7.80;;
51527;SDS011;37612;51.768;21.590;2023-12-22T07:09:39;18.40;;;9.90;;
51527;SDS011;37612;51.768;21.590;2023-12-22T07:13:41;14.30;;;8.90;;
51527;SDS011;37612;51.768;21.590;2023-12-22T07:17:43;12.10;;;3.70;;
51527;SDS011;37612;51.768;21.590;2023-12-22T07:22:06;10.30;;;2.30;;
51527;SDS011;37612;51.768;21.590;2023-12-22T07:26:08;11.60;;;3.40;;
51527;SDS011;37612;51.768;21.590;2023-12-22T07:30:29;8.00;;;4.10;;
51527;SDS011;37612;51.768;21.590;2023-12-22T07:34:31;14.50;;;6.00;;
51527;SDS011;37612;51.768;21.590;2023-12-22T07:38:32;18.80;;;4.80;;
51527;SDS011;37612;51.768;21.590;2023-12-22T07:42:35;14.20;;;2.80;;
51527;SDS011;37612;51.768;21.590;2023-12-22T07:46:37;8.20;;;2.40;;
51527;SDS011;37612;51.768;21.590;2023-12-22T07:50:39;11.60;;;4.30;;
51527;SDS011;37612;51.768;21.590;2023-12-22T07:54:43;11.60;;;3.40;;
51527;SDS011;37612;51.768;21.590;2023-12-22T07:58:45;13.00;;;2.70;;
51527;SDS011;37612;51.768;21.590;2023-12-22T08:02:48;12.50;;;2.70;;
51527;SDS011;37612;51.768;21.590;2023-12-22T08:06:51;9.90;;;2.20;;
51527;SDS011;37612;51.768;21.590;2023-12-22T08:10:54;10.20;;;2.50;;
51527;SDS011;37612;51.768;21.590;2023-12-22T08:14:56;8.20;;;1.00;;
51527;SDS011;37612;51.768;21.590;2023-12-22T08:18:58;7.50;;;1.50;;
51527;SDS011;37612;51.768;21.590;2023-12-22T08:23:00;5.80;;;1.20;;
51527;SDS011;37612;51.768;21.590;2023-12-22T08:31:06;2.50;;;1.00;;
51527;SDS011;37612;51.768;21.590;2023-12-22T08:35:08;7.10;;;1.50;;
51527;SDS011;37612;51.768;21.590;2023-12-22T08:39:10;5.50;;;1.00;;
51527;SDS011;37612;51.768;21.590;2023-12-22T08:43:13;9.90;;;1.30;;
51527;SDS011;37612;51.768;21.590;2023-12-22T08:47:26;12.60;;;1.50;;
51527;SDS011;37612;51.768;21.590;2023-12-22T08:51:40;6.10;;;1.40;;
51527;SDS011;37612;51.768;21.590;2023-12-22T08:55:44;14.00;;;2.40;;
51527;SDS011;37612;51.768;21.590;2023-12-22T09:00:08;5.50;;;2.50;;
51527;SDS011;37612;51.768;21.590;2023-12-22T09:04:30;9.30;;;1.80;;
51527;SDS011;37612;51.768;21.590;2023-12-22T09:08:33;8.00;;;1.90;;
51527;SDS011;37612;51.768;21.590;2023-12-22T09:12:35;10.50;;;2.10;;
51527;SDS011;37612;51.768;21.590;2023-12-22T09:16:41;14.10;;;3.00;;
51527;SDS011;37612;51.768;21.590;2023-12-22T09:21:18;8.40;;;1.80;;
51527;SDS011;37612;51.768;21.590;2023-12-22T09:26:02;14.70;;;2.30;;
51527;SDS011;37612;51.768;21.590;2023-12-22T09:30:25;8.90;;;2.10;;
51527;SDS011;37612;51.768;21.590;2023-12-22T09:35:27;11.60;;;2.50;;
51527;SDS011;37612;51.768;21.590;2023-12-22T09:39:49;8.40;;;1.70;;
51527;SDS011;37612;51.768;21.590;2023-12-22T09:43:53;5.80;;;2.00;;
51527;SDS011;37612;51.768;21.590;2023-12-22T09:48:49;14.50;;;2.70;;
51527;SDS011;37612;51.768;21.590;2023-12-22T09:53:31;8.00;;;1.90;;
51527;SDS011;37612;51.768;21.590;2023-12-22T09:57:55;7.40;;;2.10;;
51527;SDS011;37612;51.768;21.590;2023-12-22T10:02:21;8.00;;;2.00;;
51527;SDS011;37612;51.768;21.590;2023-12-22T10:06:53;11.90;;;2.30;;
51527;SDS011;37612;51.768;21.590;2023-12-22T10:11:10;10.10;;;2.20;;
51527;SDS011;37612;51.768;21.590;2023-12-22T10:15:27;9.40;;;2.20;;
51527;SDS011;37612;51.768;21.590;2023-12-22T10:20:02;11.80;;;1.90;;
51527;SDS011;37612;51.768;21.590;2023-12-22T10:24:43;7.80;;;2.50;;
51527;SDS011;37612;51.768;21.590;2023-12-22T10:29:34;7.40;;;2.50;;
51527;SDS011;37612;51.768;21.590;2023-12-22T10:33:43;7.70;;;1.80;;
51527;SDS011;37612;51.768;21.590;2023-12-22T10:38:13;7.20;;;2.20;;
51527;SDS011;37612;51.768;21.590;2023-12-22T10:42:45;10.30;;;2.30;;
51527;SDS011;37612;51.768;21.590;2023-12-22T10:47:05;11.90;;;2.00;;
51527;SDS011;37612;51.768;21.590;2023-12-22T10:55:18;5.60;;;1.30;;
51527;SDS011;37612;51.768;21.590;2023-12-22T10:59:22;7.00;;;1.30;;
51527;SDS011;37612;51.768;21.590;2023-12-22T11:03:44;6.90;;;1.70;;
51527;SDS011;37612;51.768;21.590;2023-12-22T11:07:55;8.50;;;1.60;;
51527;SDS011;37612;51.768;21.590;2023-12-22T11:12:38;9.70;;;2.20;;
51527;SDS011;37612;51.768;21.590;2023-12-22T11:16:42;18.70;;;2.30;;
51527;SDS011;37612;51.768;21.590;2023-12-22T16:36:21;6.10;;;3.10;;
51527;SDS011;37612;51.768;21.590;2023-12-22T20:09:03;13.40;;;2.90;;
51527;SDS011;37612;51.768;21.590;2023-12-22T20:30:01;11.00;;;4.40;;
51527;SDS011;37612;51.768;21.590;2023-12-22T21:41:35;9.10;;;2.10;;
51527;SDS011;37612;51.768;21.590;2023-12-22T22:26:28;7.60;;;2.00;;
51527;SDS011;37612;51.768;21.590;2023-12-22T23:43:08;6.70;;;1.70;;
